createdAt,value
2018-12-01T00:01:17.744Z,26.45
2018-12-01T00:03:51.013Z,31.37
2018-12-01T00:06:20.920Z,35.70
2018-12-01T00:08:51.843Z,34.08
2018-12-01T00:11:23.926Z,34.13
2018-12-01T00:13:55.872Z,33.85
2018-12-01T00:16:26.763Z,33.00
2018-12-01T00:18:56.920Z,32.13
2018-12-01T00:21:27.090Z,30.12
2018-12-01T00:23:57.996Z,29.27
2018-12-01T00:26:29.827Z,31.50
2018-12-01T00:29:01.840Z,28.95
2018-12-01T00:31:32.894Z,33.78
2018-12-01T00:34:02.691Z,32.80
2018-12-01T00:36:36.788Z,43.68
2018-12-01T00:39:08.191Z,38.15
2018-12-01T00:41:37.964Z,34.88
2018-12-01T00:44:09.080Z,28.70
2018-12-01T00:46:39.017Z,32.93
2018-12-01T00:49:10.033Z,33.90
2018-12-01T00:51:40.500Z,30.00
2018-12-01T00:54:11.756Z,34.92
2018-12-01T00:56:41.975Z,35.43
2018-12-01T00:59:13.107Z,33.18
2018-12-01T01:01:43.176Z,33.55
2018-12-01T01:04:13.704Z,33.65
2018-12-01T01:06:44.100Z,34.58
2018-12-01T01:09:14.831Z,32.70
2018-12-01T01:11:45.134Z,33.28
2018-12-01T01:14:15.263Z,36.50
2018-12-01T01:16:46.331Z,38.02
2018-12-01T01:19:16.760Z,32.48
2018-12-01T01:21:48.113Z,39.75
2018-12-01T01:24:17.944Z,31.52
2018-12-01T01:26:48.310Z,35.73
2018-12-01T01:29:18.305Z,29.90
2018-12-01T01:31:52.230Z,34.92
2018-12-01T01:34:24.240Z,34.67
2018-12-01T01:36:56.124Z,35.15
2018-12-01T01:39:27.380Z,36.77
2018-12-01T01:41:57.254Z,34.65
2018-12-01T01:44:28.338Z,33.70
2018-12-01T01:46:58.150Z,34.35
2018-12-01T01:49:29.419Z,33.53
2018-12-01T01:52:00.261Z,35.05
2018-12-01T01:54:30.489Z,36.17
2018-12-01T01:57:01.311Z,32.20
2018-12-01T01:59:31.369Z,33.92
2018-12-01T02:02:03.611Z,30.37
2018-12-01T02:04:35.353Z,36.68
2018-12-01T02:07:07.373Z,33.78
2018-12-01T02:09:37.277Z,37.40
2018-12-01T02:12:08.289Z,40.90
2018-12-01T02:14:39.544Z,39.80
2018-12-01T02:17:12.179Z,35.05
2018-12-01T02:19:46.442Z,38.05
2018-12-01T02:22:16.954Z,36.35
2018-12-01T02:24:47.303Z,32.33
2018-12-01T02:27:17.836Z,31.02
2018-12-01T02:29:48.260Z,31.65
2018-12-01T02:32:18.505Z,32.40
2018-12-01T02:34:49.370Z,37.90
2018-12-01T02:37:19.544Z,37.78
2018-12-01T02:39:50.324Z,32.38
2018-12-01T02:42:20.406Z,31.55
2018-12-01T02:45:03.209Z,33.10
2018-12-01T02:47:34.243Z,39.00
2018-12-01T02:50:05.767Z,34.03
2018-12-01T02:52:36.598Z,33.58
2018-12-01T02:55:07.277Z,37.23
2018-12-01T02:57:38.097Z,34.65
2018-12-01T03:00:11.302Z,32.90
2018-12-01T03:02:43.664Z,34.13
2018-12-01T03:05:14.062Z,34.50
2018-12-01T03:07:44.805Z,33.13
2018-12-01T03:10:18.099Z,33.85
2018-12-01T03:12:48.584Z,39.18
2018-12-01T03:15:20.773Z,34.83
2018-12-01T03:17:52.851Z,37.20
2018-12-01T03:20:24.734Z,38.85
2018-12-01T03:22:57.467Z,33.15
2018-12-01T03:25:27.747Z,32.73
2018-12-01T03:27:59.804Z,36.50
2018-12-01T03:30:31.799Z,38.53
2018-12-01T03:33:01.708Z,32.55
2018-12-01T03:35:32.779Z,36.65
2018-12-01T03:38:08.154Z,32.35
2018-12-01T03:40:42.744Z,37.78
2018-12-01T03:43:12.755Z,38.30
2018-12-01T03:45:42.251Z,37.75
2018-12-01T03:48:12.777Z,38.38
2018-12-01T03:50:43.012Z,37.10
2018-12-01T03:53:14.024Z,41.63
2018-12-01T03:55:43.836Z,39.83
2018-12-01T03:58:14.895Z,45.63
2018-12-01T04:00:44.903Z,39.50
2018-12-01T04:03:15.938Z,40.55
2018-12-01T04:05:45.873Z,44.90
2018-12-01T04:08:16.770Z,43.55
2018-12-01T04:10:46.963Z,41.68
2018-12-01T04:13:18.359Z,41.23
2018-12-01T04:15:49.108Z,39.78
2018-12-01T04:18:18.920Z,36.58
2018-12-01T04:20:50.082Z,41.02
2018-12-01T04:23:20.579Z,42.80
2018-12-01T04:25:50.992Z,47.10
2018-12-01T04:28:20.587Z,45.55
2018-12-01T04:30:52.100Z,42.08
2018-12-01T04:33:23.971Z,43.08
2018-12-01T04:35:53.996Z,43.02
2018-12-01T04:38:23.961Z,43.20
2018-12-01T04:40:55.055Z,40.75
2018-12-01T04:43:27.065Z,39.30
2018-12-01T04:45:57.246Z,41.92
2018-12-01T04:48:27.428Z,45.23
2018-12-01T04:50:58.149Z,43.52
2018-12-01T04:53:28.987Z,47.08
2018-12-01T04:55:59.212Z,43.52
2018-12-01T04:58:30.329Z,43.83
2018-12-01T05:01:00.034Z,38.67
2018-12-01T05:03:31.152Z,40.60
2018-12-01T05:06:01.322Z,41.53
2018-12-01T05:08:32.316Z,42.03
2018-12-01T05:11:02.276Z,41.23
2018-12-01T05:13:33.243Z,36.98
2018-12-01T05:16:03.348Z,42.83
2018-12-01T05:18:33.228Z,43.02
2018-12-01T05:21:04.545Z,40.85
2018-12-01T05:23:35.387Z,37.98
2018-12-01T05:26:07.171Z,39.88
2018-12-01T05:28:37.370Z,40.50
2018-12-01T05:31:07.455Z,41.42
2018-12-01T05:33:37.407Z,41.85
2018-12-01T05:36:09.266Z,45.85
2018-12-01T05:38:40.623Z,40.75
2018-12-01T05:41:12.374Z,39.70
2018-12-01T05:43:46.345Z,40.03
2018-12-01T05:46:17.587Z,37.65
2018-12-01T05:48:47.601Z,44.03
2018-12-01T05:51:18.619Z,41.85
2018-12-01T05:53:49.812Z,39.45
2018-12-01T05:56:20.386Z,38.65
2018-12-01T05:58:50.504Z,44.83
2018-12-01T06:01:20.997Z,39.95
2018-12-01T06:03:52.643Z,41.85
2018-12-01T06:06:24.336Z,38.63
2018-12-01T06:08:56.283Z,39.95
2018-12-01T06:11:27.132Z,38.48
2018-12-01T06:13:57.777Z,50.23
2018-12-01T06:16:27.727Z,43.28
2018-12-01T06:18:58.584Z,41.13
2018-12-01T06:21:29.246Z,41.15
2018-12-01T06:23:59.577Z,44.50
2018-12-01T06:26:30.162Z,42.08
2018-12-01T06:29:00.708Z,48.08
2018-12-01T06:31:30.944Z,39.48
2018-12-01T06:34:01.602Z,45.60
2018-12-01T06:36:35.298Z,41.08
2018-12-01T06:39:07.702Z,44.45
2018-12-01T06:41:39.665Z,42.30
2018-12-01T06:44:11.631Z,40.40
2018-12-01T06:46:44.723Z,42.15
2018-12-01T06:49:14.717Z,44.55
2018-12-01T06:51:44.646Z,46.00
2018-12-01T06:54:15.705Z,47.93
2018-12-01T06:56:46.709Z,44.00
2018-12-01T06:59:16.575Z,41.18
2018-12-01T07:01:47.789Z,43.75
2018-12-01T07:04:18.659Z,48.73
2018-12-01T07:06:48.647Z,43.38
2018-12-01T07:09:19.720Z,52.80
2018-12-01T07:11:51.832Z,44.10
2018-12-01T07:14:21.424Z,47.98
2018-12-01T07:16:52.662Z,47.48
2018-12-01T07:19:24.665Z,40.92
2018-12-01T07:21:56.659Z,48.28
2018-12-01T07:24:27.916Z,44.58
2018-12-01T07:26:57.860Z,38.17
2018-12-01T07:29:27.916Z,42.30
2018-12-01T07:31:58.986Z,43.05
2018-12-01T07:34:31.071Z,43.23
2018-12-01T07:37:02.862Z,42.35
2018-12-01T07:39:33.555Z,42.85
2018-12-01T07:42:03.921Z,46.60
2018-12-01T07:44:34.548Z,41.30
2018-12-01T07:47:04.878Z,43.68
2018-12-01T07:49:35.671Z,46.70
2018-12-01T07:52:06.378Z,43.43
2018-12-01T07:54:36.772Z,49.20
2018-12-01T07:57:07.776Z,47.10
2018-12-01T07:59:38.162Z,42.57
2018-12-01T08:02:08.836Z,46.10
2018-12-01T08:04:39.033Z,57.90
2018-12-01T08:07:10.104Z,48.43
2018-12-01T08:09:40.923Z,59.07
2018-12-01T08:12:11.228Z,40.80
2018-12-01T08:14:42.027Z,36.33
2018-12-01T08:17:13.020Z,39.40
2018-12-01T08:19:43.038Z,39.27
2018-12-01T08:22:14.097Z,43.73
2018-12-01T08:24:45.167Z,40.53
2018-12-01T08:27:16.017Z,39.07
2018-12-01T08:29:46.808Z,36.97
2018-12-01T08:32:17.133Z,46.43
2018-12-01T08:34:47.941Z,80.37
2018-12-01T08:37:19.079Z,47.70
2018-12-01T08:39:49.226Z,42.10
2018-12-01T08:42:19.965Z,41.93
2018-12-01T08:44:50.209Z,45.13
2018-12-01T08:47:21.228Z,38.77
2018-12-01T08:49:51.483Z,51.33
2018-12-01T08:52:22.029Z,38.73
2018-12-01T08:54:53.224Z,37.63
2018-12-01T08:57:24.130Z,42.00
2018-12-01T08:59:54.049Z,43.03
2018-12-01T09:02:24.083Z,43.10
2018-12-01T09:04:55.105Z,42.10
2018-12-01T09:07:25.783Z,42.80
2018-12-01T09:09:56.167Z,39.63
2018-12-01T09:12:27.063Z,41.23
2018-12-01T09:14:57.270Z,41.50
2018-12-01T09:17:27.252Z,43.30
2018-12-01T09:19:59.100Z,43.80
2018-12-01T09:22:29.655Z,40.67
2018-12-01T09:25:00.232Z,44.47
2018-12-01T09:27:30.322Z,43.27
2018-12-01T09:30:02.161Z,40.57
2018-12-01T09:32:32.330Z,41.60
2018-12-01T09:35:02.495Z,38.87
2018-12-01T09:37:33.501Z,38.60
2018-12-01T09:40:04.379Z,37.77
2018-12-01T09:42:34.911Z,41.83
2018-12-01T09:45:08.025Z,40.47
2018-12-01T09:47:43.321Z,43.40
2018-12-01T09:50:15.996Z,46.07
2018-12-01T09:52:48.484Z,43.33
2018-12-01T09:55:22.504Z,43.80
2018-12-01T09:57:53.323Z,44.63
2018-12-01T10:00:26.749Z,44.93
2018-12-01T10:02:57.733Z,47.33
2018-12-01T10:05:27.406Z,54.77
2018-12-01T10:07:58.733Z,46.03
2018-12-01T10:10:28.757Z,45.73
2018-12-01T10:12:59.610Z,41.73
2018-12-01T10:15:30.899Z,49.13
2018-12-01T10:18:00.566Z,56.73
2018-12-01T10:20:34.418Z,48.73
2018-12-01T10:23:08.817Z,48.70
2018-12-01T10:25:40.717Z,46.17
2018-12-01T10:28:11.889Z,44.93
2018-12-01T10:30:42.844Z,49.00
2018-12-01T10:33:15.182Z,56.00
2018-12-01T10:35:46.639Z,59.20
2018-12-01T10:38:17.849Z,48.53
2018-12-01T10:40:47.800Z,44.70
2018-12-01T10:43:18.605Z,50.13
2018-12-01T10:45:49.471Z,49.73
2018-12-01T10:48:19.611Z,52.63
2018-12-01T10:50:50.707Z,53.60
2018-12-01T10:53:21.160Z,50.47
2018-12-01T10:55:52.816Z,45.87
2018-12-01T10:58:23.300Z,53.77
2018-12-01T11:00:58.801Z,52.87
2018-12-01T11:03:36.496Z,49.33
2018-12-01T11:06:12.400Z,58.13
2018-12-01T11:08:43.816Z,53.73
2018-12-01T11:11:14.861Z,45.37
2018-12-01T11:13:44.884Z,48.80
2018-12-01T11:16:16.589Z,52.43
2018-12-01T11:18:47.895Z,51.83
2018-12-01T11:21:19.734Z,51.07
2018-12-01T11:23:50.936Z,51.03
2018-12-01T11:26:20.708Z,48.90
2018-12-01T11:28:51.735Z,55.70
2018-12-01T11:31:21.350Z,49.33
2018-12-01T11:33:52.908Z,59.03
2018-12-01T11:36:24.821Z,170.70
2018-12-01T11:38:56.995Z,203.83
2018-12-01T11:41:27.792Z,67.03
2018-12-01T11:43:59.010Z,49.00
2018-12-01T11:46:31.004Z,55.10
2018-12-01T11:49:03.024Z,52.43
2018-12-01T11:51:34.092Z,62.03
2018-12-01T11:54:05.311Z,58.80
2018-12-01T11:56:35.095Z,62.50
2018-12-01T11:59:06.984Z,55.80
2018-12-01T12:01:37.152Z,50.50
2018-12-01T12:04:08.072Z,60.03
2018-12-01T12:06:38.783Z,54.93
2018-12-01T12:09:14.198Z,47.43
2018-12-01T12:11:46.066Z,50.67
2018-12-01T12:14:15.973Z,56.43
2018-12-01T12:16:46.346Z,51.63
2018-12-01T12:19:17.087Z,47.13
2018-12-01T12:21:48.962Z,58.30
2018-12-01T12:24:21.423Z,53.27
2018-12-01T12:26:52.165Z,60.10
2018-12-01T12:29:21.850Z,52.70
2018-12-01T12:31:54.422Z,54.70
2018-12-01T12:34:25.069Z,54.00
2018-12-01T12:36:57.131Z,55.70
2018-12-01T12:39:28.177Z,61.90
2018-12-01T12:41:58.208Z,54.83
2018-12-01T12:44:28.231Z,69.60
2018-12-01T12:47:00.179Z,58.13
2018-12-01T12:49:31.228Z,53.67
2018-12-01T12:52:01.319Z,57.47
2018-12-01T12:54:32.378Z,50.03
2018-12-01T12:57:02.410Z,46.07
2018-12-01T12:59:33.207Z,59.83
2018-12-01T13:02:04.260Z,51.53
2018-12-01T13:04:34.348Z,51.70
2018-12-01T13:07:04.156Z,56.07
2018-12-01T13:09:36.181Z,50.70
2018-12-01T13:12:06.996Z,49.53
2018-12-01T13:14:37.433Z,55.17
2018-12-01T13:17:08.390Z,53.93
2018-12-01T13:19:40.378Z,45.90
2018-12-01T13:22:10.368Z,47.67
2018-12-01T13:24:41.298Z,50.73
2018-12-01T13:27:11.424Z,54.37
2018-12-01T13:29:41.636Z,62.93
2018-12-01T13:32:12.267Z,65.43
2018-12-01T13:34:42.455Z,74.47
2018-12-01T13:37:12.447Z,67.93
2018-12-01T13:39:43.636Z,72.60
2018-12-01T13:42:14.536Z,49.13
2018-12-01T13:44:44.369Z,55.47
2018-12-01T13:47:15.550Z,58.80
2018-12-01T13:49:45.543Z,53.43
2018-12-01T13:52:16.588Z,55.20
2018-12-01T13:54:46.522Z,56.80
2018-12-01T13:57:17.591Z,54.40
2018-12-01T13:59:48.459Z,54.60
2018-12-01T14:02:18.523Z,63.07
2018-12-01T14:04:49.750Z,56.53
2018-12-01T14:07:20.596Z,61.23
2018-12-01T14:09:52.668Z,60.57
2018-12-01T14:12:22.187Z,56.57
2018-12-01T14:14:58.533Z,54.80
2018-12-01T14:17:29.135Z,52.17
2018-12-01T14:20:00.165Z,52.60
2018-12-01T14:22:30.689Z,54.97
2018-12-01T14:25:01.639Z,60.07
2018-12-01T14:27:32.294Z,71.03
2018-12-01T14:30:03.324Z,58.93
2018-12-01T14:32:33.729Z,58.83
2018-12-01T14:35:04.568Z,58.47
2018-12-01T14:37:34.787Z,55.63
2018-12-01T14:40:05.885Z,51.90
2018-12-01T14:42:36.012Z,57.03
2018-12-01T14:45:08.623Z,57.50
2018-12-01T14:47:39.758Z,55.03
2018-12-01T14:50:12.753Z,58.63
2018-12-01T14:52:44.571Z,58.27
2018-12-01T14:55:16.044Z,63.10
2018-12-01T14:57:48.188Z,54.43
2018-12-01T15:00:25.328Z,64.33
2018-12-01T15:02:55.865Z,55.40
2018-12-01T15:05:26.452Z,61.60
2018-12-01T15:07:56.027Z,70.27
2018-12-01T15:10:27.668Z,66.03
2018-12-01T15:12:57.209Z,62.73
2018-12-01T15:15:33.819Z,62.00
2018-12-01T15:18:04.000Z,60.83
2018-12-01T15:20:35.133Z,57.27
2018-12-01T15:23:07.137Z,59.70
2018-12-01T15:25:40.027Z,62.03
2018-12-01T15:28:09.915Z,67.93
2018-12-01T15:30:41.343Z,58.30
2018-12-01T15:33:13.228Z,70.53
2018-12-01T15:35:46.140Z,65.70
2018-12-01T15:38:18.005Z,85.67
2018-12-01T15:40:50.409Z,97.03
2018-12-01T15:43:21.937Z,77.97
2018-12-01T15:45:53.083Z,117.77
2018-12-01T15:48:24.980Z,102.67
2018-12-01T15:50:57.033Z,67.47
2018-12-01T15:53:28.076Z,62.70
2018-12-01T15:55:58.137Z,63.80
2018-12-01T15:58:29.059Z,67.80
2018-12-01T16:00:59.350Z,63.63
2018-12-01T16:03:30.120Z,64.00
2018-12-01T16:06:00.174Z,66.60
2018-12-01T16:08:31.317Z,64.30
2018-12-01T16:11:01.065Z,60.20
2018-12-01T16:13:33.088Z,69.83
2018-12-01T16:16:06.469Z,76.20
2018-12-01T16:18:36.375Z,61.10
2018-12-01T16:21:07.361Z,69.13
2018-12-01T16:23:37.885Z,73.47
2018-12-01T16:26:10.286Z,67.43
2018-12-01T16:28:40.188Z,68.80
2018-12-01T16:31:11.297Z,66.87
2018-12-01T16:33:42.292Z,65.27
2018-12-01T16:36:12.426Z,87.60
2018-12-01T16:38:45.580Z,75.37
2018-12-01T16:41:21.393Z,76.17
2018-12-01T16:43:53.330Z,69.13
2018-12-01T16:46:26.240Z,67.27
2018-12-01T16:48:57.381Z,67.97
2018-12-01T16:51:29.335Z,69.73
2018-12-01T16:54:01.358Z,64.10
2018-12-01T16:56:31.600Z,61.33
2018-12-01T16:59:03.326Z,65.03
2018-12-01T17:01:35.529Z,65.20
2018-12-01T17:04:07.422Z,60.97
2018-12-01T17:06:37.641Z,68.50
2018-12-01T17:09:09.333Z,69.97
2018-12-01T17:11:39.439Z,63.83
2018-12-01T17:14:09.545Z,74.33
2018-12-01T17:16:40.539Z,67.93
2018-12-01T17:19:11.404Z,66.70
2018-12-01T17:21:42.167Z,71.17
2018-12-01T17:24:12.173Z,71.60
2018-12-01T17:26:42.508Z,69.00
2018-12-01T17:29:13.157Z,74.43
2018-12-01T17:31:43.562Z,70.03
2018-12-01T17:34:13.716Z,83.53
2018-12-01T17:36:44.776Z,73.03
2018-12-01T17:39:15.416Z,73.80
2018-12-01T17:41:45.469Z,70.60
2018-12-01T17:44:15.698Z,67.50
2018-12-01T17:46:45.868Z,63.63
2018-12-01T17:49:16.822Z,67.07
2018-12-01T17:51:47.870Z,71.03
2018-12-01T17:54:18.557Z,76.60
2018-12-01T17:56:48.461Z,68.27
2018-12-01T17:59:19.054Z,76.27
2018-12-01T18:01:49.515Z,67.10
2018-12-01T18:04:19.832Z,67.30
2018-12-01T18:06:50.944Z,66.73
2018-12-01T18:09:20.698Z,61.63
2018-12-01T18:11:51.679Z,67.50
2018-12-01T18:14:22.127Z,67.47
2018-12-01T18:16:52.770Z,68.77
2018-12-01T18:19:22.405Z,66.40
2018-12-01T18:21:54.843Z,61.30
2018-12-01T18:24:30.718Z,61.07
2018-12-01T18:27:01.765Z,63.60
2018-12-01T18:29:32.897Z,73.03
2018-12-01T18:32:05.000Z,64.17
2018-12-01T18:34:36.874Z,72.80
2018-12-01T18:37:07.941Z,74.03
2018-12-01T18:39:38.730Z,60.90
2018-12-01T18:42:09.114Z,68.97
2018-12-01T18:44:39.870Z,71.73
2018-12-01T18:47:10.004Z,69.17
2018-12-01T18:49:40.030Z,77.53
2018-12-01T18:52:10.828Z,71.30
2018-12-01T18:54:40.948Z,68.97
2018-12-01T18:57:11.978Z,73.70
2018-12-01T19:00:00.543Z,66.90
2018-12-01T19:02:30.296Z,63.77
2018-12-01T19:05:00.940Z,63.10
2018-12-01T19:07:31.351Z,65.73
2018-12-01T19:10:01.818Z,61.30
2018-12-01T19:12:34.265Z,73.60
2018-12-01T19:15:13.226Z,76.50
2018-12-01T19:17:47.460Z,76.37
2018-12-01T19:20:19.974Z,71.10
2018-12-01T19:22:50.491Z,75.00
2018-12-01T19:25:22.065Z,68.97
2018-12-01T19:27:59.759Z,68.87
2018-12-01T19:30:34.148Z,81.17
2018-12-01T19:33:08.091Z,78.10
2018-12-01T19:35:39.281Z,80.37
2018-12-01T19:38:11.105Z,84.17
2018-12-01T19:40:42.496Z,81.43
2018-12-01T19:43:13.110Z,73.57
2018-12-01T19:45:43.765Z,76.33
2018-12-01T19:48:14.018Z,81.07
2018-12-01T19:50:44.199Z,84.37
2018-12-01T19:53:17.029Z,72.40
2018-12-01T19:55:47.932Z,76.53
2018-12-01T19:58:19.890Z,75.10
2018-12-01T20:00:53.386Z,81.10
2018-12-01T20:03:24.073Z,92.03
2018-12-01T20:05:55.164Z,101.63
2018-12-01T20:08:25.568Z,80.90
2018-12-01T20:11:01.572Z,87.13
2018-12-01T20:13:40.403Z,85.47
2018-12-01T20:16:34.230Z,193.68
2018-12-01T20:19:07.060Z,114.10
2018-12-01T20:21:37.168Z,103.37
2018-12-01T20:24:08.871Z,106.15
2018-12-01T20:26:42.223Z,93.03
2018-12-01T20:29:14.306Z,93.50
2018-12-01T20:31:45.373Z,106.37
2018-12-01T20:34:15.821Z,98.70
2018-12-01T20:37:03.200Z,102.40
2018-12-01T20:39:38.546Z,100.75
2018-12-01T20:42:08.390Z,94.13
2018-12-01T20:44:40.055Z,98.27
2018-12-01T20:47:13.515Z,110.00
2018-12-01T20:49:43.251Z,127.58
2018-12-01T20:52:14.299Z,116.97
2018-12-01T20:54:46.102Z,129.55
2018-12-01T20:57:20.769Z,108.20
2018-12-01T20:59:51.453Z,122.17
2018-12-01T21:02:22.133Z,107.47
2018-12-01T21:04:53.453Z,112.90
2018-12-01T21:07:23.085Z,117.20
2018-12-01T21:09:54.590Z,113.92
2018-12-01T21:12:25.603Z,121.90
2018-12-01T21:14:56.463Z,107.07
2018-12-01T21:17:28.688Z,114.00
2018-12-01T21:20:01.650Z,111.70
2018-12-01T21:22:31.632Z,108.42
2018-12-01T21:25:02.473Z,104.55
2018-12-01T21:27:34.494Z,101.82
2018-12-01T21:30:14.530Z,119.47
2018-12-01T21:32:45.286Z,125.00
2018-12-01T21:35:15.613Z,112.03
2018-12-01T21:37:45.574Z,136.30
2018-12-01T21:40:17.960Z,118.08
2018-12-01T21:42:49.613Z,112.37
2018-12-01T21:45:21.363Z,127.20
2018-12-01T21:47:53.472Z,126.92
2018-12-01T21:50:25.619Z,125.30
2018-12-01T21:52:58.603Z,120.02
2018-12-01T21:55:28.386Z,135.65
2018-12-01T21:57:58.883Z,119.17
2018-12-01T22:00:30.816Z,127.30
2018-12-01T22:03:06.393Z,123.97
2018-12-01T22:05:44.385Z,111.90
2018-12-01T22:08:17.075Z,121.35
2018-12-01T22:10:49.367Z,114.75
2018-12-01T22:13:25.609Z,128.78
2018-12-01T22:15:56.808Z,125.82
2018-12-01T22:18:30.120Z,114.03
2018-12-01T22:21:02.715Z,119.02
2018-12-01T22:23:34.703Z,118.90
2018-12-01T22:26:06.444Z,120.47
2018-12-01T22:28:36.564Z,126.70
2018-12-01T22:31:06.995Z,123.53
2018-12-01T22:33:37.925Z,122.20
2018-12-01T22:36:08.047Z,132.00
2018-12-01T22:38:38.715Z,129.12
2018-12-01T22:41:10.392Z,109.12
2018-12-01T22:43:41.249Z,121.95
2018-12-01T22:46:11.270Z,130.63
2018-12-01T22:48:41.607Z,123.75
2018-12-01T22:51:11.981Z,125.60
2018-12-01T22:53:42.289Z,125.35
2018-12-01T22:56:12.856Z,113.32
2018-12-01T22:58:43.399Z,133.15
2018-12-01T23:01:14.103Z,137.15
2018-12-01T23:03:45.199Z,131.87
2018-12-01T23:06:14.922Z,130.65
2018-12-01T23:08:45.090Z,121.05
2018-12-01T23:11:18.865Z,136.50
2018-12-01T23:13:49.715Z,131.15
2018-12-01T23:16:21.998Z,128.12
2018-12-01T23:18:54.014Z,119.87
2018-12-01T23:21:26.087Z,121.02
2018-12-01T23:23:58.076Z,129.35
2018-12-01T23:26:28.921Z,133.78
2018-12-01T23:28:59.100Z,128.50
2018-12-01T23:31:29.965Z,140.03
2018-12-01T23:34:00.943Z,123.80
2018-12-01T23:36:31.984Z,122.87
2018-12-01T23:39:04.752Z,128.57
2018-12-01T23:41:37.912Z,133.37
2018-12-01T23:44:10.492Z,123.18
2018-12-01T23:46:42.080Z,114.92
2018-12-01T23:49:13.129Z,129.40
2018-12-01T23:51:43.160Z,131.60
2018-12-01T23:54:14.215Z,124.20
2018-12-01T23:56:45.093Z,135.50
2018-12-01T23:59:16.208Z,131.10
